createdAt,value
2022-12-18T00:01:07.053Z,-5.70
2022-12-18T00:03:37.670Z,-5.70
2022-12-18T00:06:04.773Z,-5.80
2022-12-18T00:08:31.518Z,-5.90
2022-12-18T00:11:07.016Z,-5.90
2022-12-18T00:13:34.310Z,-6.10
2022-12-18T00:16:10.612Z,-6.10
2022-12-18T00:18:37.602Z,-6.20
2022-12-18T00:21:07.289Z,-6.20
2022-12-18T00:23:36.091Z,-6.30
2022-12-18T00:26:05.956Z,-6.40
2022-12-18T00:28:33.393Z,-6.40
2022-12-18T00:31:08.399Z,-6.40
2022-12-18T00:33:35.775Z,-6.40
2022-12-18T00:36:04.374Z,-6.40
2022-12-18T00:38:30.998Z,-6.40
2022-12-18T00:40:57.721Z,-6.30
2022-12-18T00:43:24.337Z,-6.30
2022-12-18T00:45:51.602Z,-6.30
2022-12-18T00:48:18.247Z,-6.30
2022-12-18T00:50:45.154Z,-6.30
2022-12-18T00:53:12.819Z,-6.40
2022-12-18T00:55:43.639Z,-6.50
2022-12-18T00:58:12.049Z,-6.50
2022-12-18T01:00:39.127Z,-6.50
2022-12-18T01:03:06.249Z,-6.60
2022-12-18T01:05:33.761Z,-6.60
2022-12-18T01:08:01.042Z,-6.60
2022-12-18T01:10:28.017Z,-6.60
2022-12-18T01:12:54.646Z,-6.60
2022-12-18T01:15:21.423Z,-6.70
2022-12-18T01:17:48.037Z,-6.70
2022-12-18T01:20:15.069Z,-6.70
2022-12-18T01:22:41.640Z,-6.60
2022-12-18T01:25:08.740Z,-6.60
2022-12-18T01:27:35.496Z,-6.50
2022-12-18T01:30:02.251Z,-6.40
2022-12-18T01:32:31.813Z,-6.40
2022-12-18T01:34:58.581Z,-6.40
2022-12-18T01:37:25.324Z,-6.50
2022-12-18T01:39:55.191Z,-6.60
2022-12-18T01:42:22.390Z,-6.60
2022-12-18T01:45:03.928Z,-6.60
2022-12-18T01:47:47.511Z,-6.60
2022-12-18T01:50:18.041Z,-6.60
2022-12-18T01:52:48.746Z,-6.60
2022-12-18T01:55:19.503Z,-6.70
2022-12-18T01:57:47.497Z,-6.70
2022-12-18T02:00:17.629Z,-6.70
2022-12-18T02:02:45.958Z,-6.80
2022-12-18T02:05:24.402Z,-6.80
2022-12-18T02:08:00.636Z,-6.80
2022-12-18T02:10:35.021Z,-6.80
2022-12-18T02:13:15.959Z,-6.80
2022-12-18T02:15:52.064Z,-6.70
2022-12-18T02:18:39.431Z,-6.70
2022-12-18T02:21:35.286Z,-6.60
2022-12-18T02:24:18.029Z,-6.60
2022-12-18T02:26:57.287Z,-6.50
2022-12-18T02:29:39.994Z,-6.50
2022-12-18T02:32:12.276Z,-6.50
2022-12-18T02:34:40.854Z,-6.50
2022-12-18T02:37:12.518Z,-6.60
2022-12-18T02:39:42.655Z,-6.70
2022-12-18T02:42:09.902Z,-6.80
2022-12-18T02:44:47.601Z,-6.80
2022-12-18T02:47:17.729Z,-6.80
2022-12-18T02:50:10.801Z,-6.80
2022-12-18T02:52:59.989Z,-6.80
2022-12-18T02:55:47.975Z,-6.90
2022-12-18T02:58:29.400Z,-6.80
2022-12-18T03:01:17.073Z,-6.80
2022-12-18T03:03:53.712Z,-6.70
2022-12-18T03:06:34.067Z,-6.70
2022-12-18T03:09:06.959Z,-6.70
2022-12-18T03:11:56.671Z,-6.60
2022-12-18T03:14:24.357Z,-6.70
2022-12-18T03:16:54.052Z,-6.70
2022-12-18T03:19:23.179Z,-6.70
2022-12-18T03:21:56.843Z,-6.70
2022-12-18T03:24:25.323Z,-6.60
2022-12-18T03:26:54.463Z,-6.70
2022-12-18T03:29:35.614Z,-6.80
2022-12-18T03:32:15.268Z,-6.80
2022-12-18T03:34:46.201Z,-6.90
2022-12-18T03:37:12.787Z,-6.90
2022-12-18T03:39:47.830Z,-6.90
2022-12-18T03:42:23.533Z,-7.00
2022-12-18T03:45:10.616Z,-7.00
2022-12-18T03:47:47.590Z,-7.00
2022-12-18T03:50:27.398Z,-7.00
2022-12-18T03:53:28.048Z,-7.00
2022-12-18T03:55:56.336Z,-6.90
2022-12-18T03:58:29.115Z,-6.90
2022-12-18T04:01:00.592Z,-6.90
2022-12-18T04:03:29.153Z,-6.90
2022-12-18T04:05:57.407Z,-6.90
2022-12-18T04:08:25.570Z,-6.90
2022-12-18T04:10:52.366Z,-6.90
2022-12-18T04:13:38.200Z,-7.00
2022-12-18T04:16:05.693Z,-7.00
2022-12-18T04:18:32.452Z,-7.00
2022-12-18T04:20:59.082Z,-7.00
2022-12-18T04:23:25.679Z,-7.00
2022-12-18T04:25:52.278Z,-7.10
2022-12-18T04:28:18.986Z,-7.10
2022-12-18T04:30:46.125Z,-7.20
2022-12-18T04:33:14.222Z,-7.30
2022-12-18T04:35:42.279Z,-7.30
2022-12-18T04:38:10.912Z,-7.40
2022-12-18T04:40:38.798Z,-7.50
2022-12-18T04:43:05.769Z,-7.50
2022-12-18T04:45:33.437Z,-7.50
2022-12-18T04:48:01.055Z,-7.60
2022-12-18T04:50:27.925Z,-7.60
2022-12-18T04:52:55.093Z,-7.60
2022-12-18T04:55:25.674Z,-7.60
2022-12-18T04:57:52.341Z,-7.50
2022-12-18T05:00:19.437Z,-7.50
2022-12-18T05:02:46.285Z,-7.60
2022-12-18T05:05:13.095Z,-7.50
2022-12-18T05:07:39.886Z,-7.40
2022-12-18T05:10:06.967Z,-7.30
2022-12-18T05:12:33.657Z,-7.30
2022-12-18T05:15:00.323Z,-7.20
2022-12-18T05:17:27.074Z,-7.10
2022-12-18T05:19:53.700Z,-7.20
2022-12-18T05:22:24.049Z,-7.10
2022-12-18T05:24:50.743Z,-7.00
2022-12-18T05:27:17.381Z,-7.00
2022-12-18T05:29:43.954Z,-7.00
2022-12-18T05:32:10.669Z,-7.00
2022-12-18T05:34:37.288Z,-7.00
2022-12-18T05:37:03.941Z,-7.00
2022-12-18T05:39:30.597Z,-7.00
2022-12-18T05:41:57.225Z,-7.10
2022-12-18T05:44:23.933Z,-7.10
2022-12-18T05:46:50.642Z,-7.10
2022-12-18T05:49:17.361Z,-7.10
2022-12-18T05:51:44.036Z,-7.10
2022-12-18T05:54:10.662Z,-7.10
2022-12-18T05:56:37.300Z,-7.10
2022-12-18T05:59:03.958Z,-7.10
2022-12-18T06:01:30.624Z,-7.10
2022-12-18T06:03:57.786Z,-7.10
2022-12-18T06:06:27.241Z,-7.10
2022-12-18T06:08:54.919Z,-7.10
2022-12-18T06:11:25.148Z,-7.20
2022-12-18T06:13:57.805Z,-7.10
2022-12-18T06:16:25.673Z,-7.00
2022-12-18T06:18:52.268Z,-6.90
2022-12-18T06:21:19.231Z,-6.80
2022-12-18T06:23:45.904Z,-6.70
2022-12-18T06:26:13.823Z,-6.50
2022-12-18T06:28:40.690Z,-6.50
2022-12-18T06:31:08.461Z,-6.40
2022-12-18T06:33:35.707Z,-6.30
2022-12-18T06:36:05.293Z,-6.40
2022-12-18T06:38:33.816Z,-6.40
2022-12-18T06:41:00.585Z,-6.40
2022-12-18T06:43:27.315Z,-6.30
2022-12-18T06:46:14.612Z,-6.30
2022-12-18T06:48:41.582Z,-6.20
2022-12-18T06:51:08.388Z,-6.20
2022-12-18T06:53:35.135Z,-6.20
2022-12-18T06:56:09.158Z,-6.20
2022-12-18T06:58:36.824Z,-6.10
2022-12-18T07:01:06.382Z,-6.10
2022-12-18T07:03:33.311Z,-6.10
2022-12-18T07:06:00.174Z,-6.10
2022-12-18T07:08:27.003Z,-6.10
2022-12-18T07:10:56.560Z,-6.10
2022-12-18T07:13:23.522Z,-6.10
2022-12-18T07:15:59.594Z,-6.10
2022-12-18T07:18:26.264Z,-6.10
2022-12-18T07:20:52.888Z,-6.10
2022-12-18T07:23:19.584Z,-6.00
2022-12-18T07:25:47.608Z,-6.00
2022-12-18T07:28:17.530Z,-6.00
2022-12-18T07:30:54.071Z,-5.90
2022-12-18T07:33:22.324Z,-5.90
2022-12-18T07:35:48.886Z,-5.90
2022-12-18T07:38:15.536Z,-5.90
2022-12-18T07:40:42.144Z,-5.90
2022-12-18T07:43:08.834Z,-5.80
2022-12-18T07:45:35.492Z,-5.80
2022-12-18T07:48:02.161Z,-5.80
2022-12-18T07:50:28.865Z,-5.80
2022-12-18T07:52:55.482Z,-5.80
2022-12-18T07:55:22.164Z,-5.80
2022-12-18T07:57:51.443Z,-5.80
2022-12-18T08:00:19.389Z,-5.80
2022-12-18T08:02:46.210Z,-5.70
2022-12-18T08:05:12.906Z,-5.70
2022-12-18T08:07:39.500Z,-5.70
2022-12-18T08:10:07.069Z,-5.60
2022-12-18T08:12:33.710Z,-5.60
2022-12-18T08:15:00.363Z,-5.50
2022-12-18T08:17:26.989Z,-5.40
2022-12-18T08:19:53.702Z,-5.40
2022-12-18T08:22:20.338Z,-5.30
2022-12-18T08:24:46.993Z,-4.90
2022-12-18T08:27:29.079Z,-4.40
2022-12-18T08:29:56.597Z,-4.10
2022-12-18T08:32:23.604Z,-3.80
2022-12-18T08:34:52.490Z,-3.50
2022-12-18T08:37:19.242Z,-3.40
2022-12-18T08:39:45.834Z,-3.50
2022-12-18T08:42:35.124Z,-3.60
2022-12-18T08:45:02.164Z,-3.40
2022-12-18T08:47:28.899Z,-3.30
2022-12-18T08:49:55.601Z,-3.40
2022-12-18T08:52:22.201Z,-3.40
2022-12-18T08:54:48.892Z,-3.30
2022-12-18T08:57:15.796Z,-3.10
2022-12-18T08:59:42.533Z,-2.80
2022-12-18T09:02:12.872Z,-2.50
2022-12-18T09:04:40.923Z,-2.40
2022-12-18T09:07:07.754Z,-2.20
2022-12-18T09:09:34.566Z,-1.80
2022-12-18T09:12:01.316Z,-1.60
2022-12-18T09:14:28.221Z,-1.40
2022-12-18T09:16:57.417Z,-1.30
2022-12-18T09:19:24.495Z,-1.00
2022-12-18T09:21:51.319Z,-1.10
2022-12-18T09:24:24.111Z,-1.90
2022-12-18T09:26:57.559Z,-2.40
2022-12-18T09:29:24.911Z,-2.40
2022-12-18T09:31:51.765Z,-2.40
2022-12-18T09:34:18.969Z,-2.00
2022-12-18T09:36:45.720Z,-1.70
2022-12-18T09:39:14.120Z,-1.40
2022-12-18T09:41:43.530Z,-0.70
2022-12-18T09:44:30.823Z,-0.30
2022-12-18T09:47:15.775Z,-0.70
2022-12-18T09:49:49.845Z,-0.50
2022-12-18T09:52:38.388Z,-1.10
2022-12-18T09:55:36.796Z,-1.40
2022-12-18T09:58:31.647Z,-1.60
2022-12-18T10:00:58.478Z,-1.80
2022-12-18T10:03:25.152Z,-1.90
2022-12-18T10:06:24.624Z,-1.90
2022-12-18T10:08:57.283Z,-2.20
2022-12-18T10:11:43.601Z,-2.10
2022-12-18T10:14:35.015Z,-2.00
2022-12-18T10:17:16.352Z,-1.70
2022-12-18T10:19:57.252Z,-1.90
2022-12-18T10:22:29.493Z,-1.90
2022-12-18T10:25:05.018Z,-1.80
2022-12-18T10:27:31.885Z,-1.90
2022-12-18T10:30:08.586Z,-1.70
2022-12-18T10:32:36.282Z,-1.20
2022-12-18T10:35:02.964Z,-1.10
2022-12-18T10:37:31.132Z,-0.70
2022-12-18T10:40:22.264Z,-0.20
2022-12-18T10:43:12.861Z,-0.30
2022-12-18T10:45:40.250Z,-0.60
2022-12-18T10:48:19.565Z,-0.60
2022-12-18T10:53:38.449Z,-0.90
2022-12-18T10:56:07.264Z,-1.00
2022-12-18T10:58:36.531Z,-1.30
2022-12-18T11:01:05.014Z,-1.20
2022-12-18T11:03:38.704Z,-1.10
2022-12-18T11:06:07.794Z,-1.30
2022-12-18T11:08:34.752Z,-1.50
2022-12-18T11:11:01.724Z,-1.40
2022-12-18T11:13:30.945Z,-1.20
2022-12-18T11:15:58.039Z,-1.20
2022-12-18T11:18:30.937Z,-1.30
2022-12-18T11:21:10.349Z,-1.30
2022-12-18T11:23:39.001Z,-1.40
2022-12-18T11:26:07.043Z,-1.40
2022-12-18T11:28:44.755Z,-1.50
2022-12-18T11:31:29.231Z,-1.50
2022-12-18T11:34:28.801Z,-1.70
2022-12-18T11:36:56.431Z,-1.70
2022-12-18T11:39:32.089Z,-1.70
2022-12-18T11:42:23.810Z,-1.80
2022-12-18T11:45:00.132Z,-1.70
2022-12-18T11:47:41.476Z,-1.80
2022-12-18T11:50:37.663Z,-1.80
2022-12-18T11:53:06.503Z,-1.90
2022-12-18T11:55:57.158Z,-2.00
2022-12-18T11:58:51.026Z,-2.00
2022-12-18T12:01:47.743Z,-2.00
2022-12-18T12:04:44.467Z,-2.00
2022-12-18T12:07:29.929Z,-2.10
2022-12-18T12:10:26.677Z,-2.10
2022-12-18T12:13:11.687Z,-2.10
2022-12-18T12:16:19.715Z,-2.10
2022-12-18T12:19:24.763Z,-2.10
2022-12-18T12:22:06.856Z,-2.10
2022-12-18T12:24:52.641Z,-2.10
2022-12-18T12:27:52.657Z,-2.00
2022-12-18T12:30:45.251Z,-2.00
2022-12-18T12:33:29.761Z,-2.10
2022-12-18T12:36:04.121Z,-2.00
2022-12-18T12:38:48.300Z,-2.00
2022-12-18T12:41:40.750Z,-1.90
2022-12-18T12:44:14.037Z,-1.90
2022-12-18T12:46:43.384Z,-1.90
2022-12-18T12:49:19.622Z,-1.80
2022-12-18T12:51:54.163Z,-1.90
2022-12-18T12:54:25.566Z,-1.80
2022-12-18T12:57:13.671Z,-1.70
2022-12-18T12:59:41.401Z,-1.70
2022-12-18T13:02:31.516Z,-1.70
2022-12-18T13:05:32.314Z,-1.70
2022-12-18T13:08:11.187Z,-1.60
2022-12-18T13:10:40.998Z,-1.60
2022-12-18T13:13:23.708Z,-1.50
2022-12-18T13:16:08.108Z,-1.60
2022-12-18T13:18:36.051Z,-1.60
2022-12-18T13:21:13.494Z,-1.60
2022-12-18T13:23:41.409Z,-1.50
2022-12-18T13:26:11.609Z,-1.50
2022-12-18T13:28:47.649Z,-1.60
2022-12-18T13:31:42.424Z,-1.60
2022-12-18T13:34:33.518Z,-1.70
2022-12-18T13:37:32.365Z,-1.70
2022-12-18T13:39:59.208Z,-1.70
2022-12-18T13:42:56.747Z,-1.80
2022-12-18T13:45:42.971Z,-1.80
2022-12-18T13:48:19.818Z,-1.90
2022-12-18T13:50:52.944Z,-1.90
2022-12-18T13:53:25.580Z,-1.90
2022-12-18T13:55:52.844Z,-1.90
2022-12-18T13:58:19.991Z,-1.90
2022-12-18T14:00:46.783Z,-2.00
2022-12-18T14:03:29.767Z,-1.90
2022-12-18T14:06:08.422Z,-1.90
2022-12-18T14:08:43.808Z,-1.90
2022-12-18T14:11:23.377Z,-1.90
2022-12-18T14:13:50.364Z,-1.90
2022-12-18T14:16:18.671Z,-2.00
2022-12-18T14:19:10.146Z,-2.00
2022-12-18T14:21:47.870Z,-2.00
2022-12-18T14:24:21.051Z,-2.00
2022-12-18T14:26:51.514Z,-2.00
2022-12-18T14:29:30.722Z,-1.90
2022-12-18T14:32:17.829Z,-2.00
2022-12-18T14:34:54.512Z,-2.10
2022-12-18T14:37:23.707Z,-2.10
2022-12-18T14:40:13.695Z,-2.10
2022-12-18T14:42:40.404Z,-2.10
2022-12-18T14:45:41.340Z,-2.10
2022-12-18T14:48:23.067Z,-2.10
2022-12-18T14:51:18.344Z,-2.10
2022-12-18T14:53:54.102Z,-2.10
2022-12-18T14:56:27.784Z,-2.10
2022-12-18T14:58:56.337Z,-2.20
2022-12-18T15:01:29.229Z,-2.20
2022-12-18T15:03:57.688Z,-2.30
2022-12-18T15:06:34.115Z,-2.30
2022-12-18T15:09:05.106Z,-2.20
2022-12-18T15:11:42.521Z,-2.30
2022-12-18T15:14:31.426Z,-2.20
2022-12-18T15:17:00.235Z,-2.20
2022-12-18T15:19:41.867Z,-2.20
2022-12-18T15:22:23.706Z,-2.20
2022-12-18T15:24:50.613Z,-2.30
2022-12-18T15:27:36.341Z,-2.20
2022-12-18T15:30:08.939Z,-2.30
2022-12-18T15:32:40.970Z,-2.20
2022-12-18T15:35:10.575Z,-2.30
2022-12-18T15:37:37.761Z,-2.30
2022-12-18T15:40:05.151Z,-2.30
2022-12-18T15:42:50.414Z,-2.30
2022-12-18T15:45:17.165Z,-2.30
2022-12-18T15:47:47.898Z,-2.30
2022-12-18T15:50:14.520Z,-2.40
2022-12-18T15:52:45.492Z,-2.40
2022-12-18T15:55:34.565Z,-2.40
2022-12-18T15:58:02.752Z,-2.40
2022-12-18T16:00:29.320Z,-2.40
2022-12-18T16:02:56.185Z,-2.40
2022-12-18T16:05:24.116Z,-2.40
2022-12-18T16:07:50.739Z,-2.40
2022-12-18T16:10:17.388Z,-2.40
2022-12-18T16:12:44.369Z,-2.40
2022-12-18T16:15:15.858Z,-2.40
2022-12-18T16:17:45.063Z,-2.40
2022-12-18T16:20:16.088Z,-2.40
2022-12-18T16:22:46.713Z,-2.40
2022-12-18T16:25:20.462Z,-2.40
2022-12-18T16:27:47.729Z,-2.40
2022-12-18T16:30:17.888Z,-2.40
2022-12-18T16:32:44.951Z,-2.50
2022-12-18T16:35:14.007Z,-2.40
2022-12-18T16:37:41.600Z,-2.50
2022-12-18T16:40:11.413Z,-2.40
2022-12-18T16:42:41.463Z,-2.50
2022-12-18T16:45:10.614Z,-2.50
2022-12-18T16:47:37.841Z,-2.50
2022-12-18T16:50:05.537Z,-2.50
2022-12-18T16:52:32.428Z,-2.50
2022-12-18T16:54:59.024Z,-2.50
2022-12-18T16:57:25.729Z,-2.50
2022-12-18T16:59:52.923Z,-2.50
2022-12-18T17:02:23.635Z,-2.50
2022-12-18T17:04:53.086Z,-2.60
2022-12-18T17:07:19.793Z,-2.50
2022-12-18T17:09:46.480Z,-2.60
2022-12-18T17:12:13.258Z,-2.50
2022-12-18T17:14:40.001Z,-2.50
2022-12-18T17:17:20.888Z,-2.50
2022-12-18T17:19:48.215Z,-2.60
2022-12-18T17:22:14.830Z,-2.60
2022-12-18T17:24:42.595Z,-2.60
2022-12-18T17:27:09.253Z,-2.60
2022-12-18T17:29:36.215Z,-2.60
2022-12-18T17:32:02.957Z,-2.60
2022-12-18T17:34:29.746Z,-2.60
2022-12-18T17:36:57.021Z,-2.60
2022-12-18T17:39:23.714Z,-2.60
2022-12-18T17:41:50.418Z,-2.60
2022-12-18T17:44:18.036Z,-2.60
2022-12-18T17:46:44.861Z,-2.60
2022-12-18T17:49:12.325Z,-2.60
2022-12-18T17:51:39.216Z,-2.60
2022-12-18T17:54:06.041Z,-2.60
2022-12-18T17:56:32.834Z,-2.60
2022-12-18T17:59:00.096Z,-2.60
2022-12-18T18:01:27.560Z,-2.60
2022-12-18T18:03:57.623Z,-2.70
2022-12-18T18:06:24.353Z,-2.60
2022-12-18T18:08:51.714Z,-2.60
2022-12-18T18:11:38.504Z,-2.70
2022-12-18T18:14:11.014Z,-2.60
2022-12-18T18:16:46.321Z,-2.60
2022-12-18T18:19:21.928Z,-2.60
2022-12-18T18:21:51.081Z,-2.60
2022-12-18T18:24:19.372Z,-2.70
2022-12-18T18:26:47.004Z,-2.60
2022-12-18T18:29:17.227Z,-2.60
2022-12-18T18:31:44.208Z,-2.60
2022-12-18T18:34:18.506Z,-2.60
2022-12-18T18:36:46.248Z,-2.50
2022-12-18T18:39:13.404Z,-2.50
2022-12-18T18:41:40.007Z,-2.50
2022-12-18T18:44:06.881Z,-2.50
2022-12-18T18:46:33.748Z,-2.50
2022-12-18T18:49:00.533Z,-2.40
2022-12-18T18:51:31.546Z,-2.40
2022-12-18T18:54:01.410Z,-2.40
2022-12-18T18:56:56.141Z,-2.40
2022-12-18T18:59:15.492Z,-2.40
2022-12-18T19:01:42.613Z,-2.40
2022-12-18T19:04:09.647Z,-2.40
2022-12-18T19:06:36.436Z,-2.30
2022-12-18T19:09:04.882Z,-2.30
2022-12-18T19:11:50.350Z,-2.30
2022-12-18T19:14:17.376Z,-2.30
2022-12-18T19:16:45.365Z,-2.20
2022-12-18T19:19:13.113Z,-2.20
2022-12-18T19:21:39.891Z,-2.20
2022-12-18T19:24:06.805Z,-2.20
2022-12-18T19:26:33.571Z,-2.20
2022-12-18T19:29:08.600Z,-2.20
2022-12-18T19:31:37.135Z,-2.10
2022-12-18T19:34:08.014Z,-2.10
2022-12-18T19:36:37.241Z,-2.00
2022-12-18T19:39:10.765Z,-2.00
2022-12-18T19:41:37.989Z,-2.00
2022-12-18T19:44:08.126Z,-2.00
2022-12-18T19:46:35.488Z,-2.00
2022-12-18T19:49:02.501Z,-1.90
2022-12-18T19:51:30.687Z,-1.90
2022-12-18T19:54:01.974Z,-1.90
2022-12-18T19:56:34.796Z,-1.90
2022-12-18T19:59:02.869Z,-1.90
2022-12-18T20:01:30.640Z,-1.90
2022-12-18T20:03:58.884Z,-1.80
2022-12-18T20:06:36.229Z,-1.80
2022-12-18T20:09:06.492Z,-1.80
2022-12-18T20:11:40.242Z,-1.80
2022-12-18T20:14:09.519Z,-1.80
2022-12-18T20:16:36.288Z,-1.70
2022-12-18T20:19:04.244Z,-1.70
2022-12-18T20:21:31.041Z,-1.70
2022-12-18T20:23:59.757Z,-1.70
2022-12-18T20:26:26.543Z,-1.70
2022-12-18T20:28:54.416Z,-1.60
2022-12-18T20:31:21.432Z,-1.60
2022-12-18T20:33:48.709Z,-1.60
2022-12-18T20:36:21.365Z,-1.60
2022-12-18T20:38:54.667Z,-1.50
2022-12-18T20:41:24.270Z,-1.60
2022-12-18T20:43:50.987Z,-1.50
2022-12-18T20:46:18.229Z,-1.50
2022-12-18T20:48:45.852Z,-1.50
2022-12-18T20:51:15.836Z,-1.40
2022-12-18T20:53:43.253Z,-1.40
2022-12-18T20:56:17.741Z,-1.40
2022-12-18T20:58:49.307Z,-1.40
2022-12-18T21:01:19.194Z,-1.40
2022-12-18T21:03:47.586Z,-1.40
2022-12-18T21:06:15.708Z,-1.30
2022-12-18T21:08:43.351Z,-1.30
2022-12-18T21:11:44.005Z,-1.30
2022-12-18T21:14:25.176Z,-1.30
2022-12-18T21:16:52.472Z,-1.30
2022-12-18T21:19:25.810Z,-1.30
2022-12-18T21:21:53.489Z,-1.30
2022-12-18T21:24:20.842Z,-1.30
2022-12-18T21:26:49.009Z,-1.30
2022-12-18T21:29:21.055Z,-1.30
2022-12-18T21:31:48.307Z,-1.30
2022-12-18T21:34:17.798Z,-1.30
2022-12-18T21:36:44.556Z,-1.30
2022-12-18T21:39:13.397Z,-1.20
2022-12-18T21:41:58.531Z,-1.20
2022-12-18T21:44:25.291Z,-1.10
2022-12-18T21:46:56.939Z,-1.10
2022-12-18T21:49:27.102Z,-1.10
2022-12-18T21:51:56.055Z,-1.10
2022-12-18T21:54:23.578Z,-1.10
2022-12-18T21:56:51.896Z,-1.10
2022-12-18T21:59:33.540Z,-1.10
2022-12-18T22:02:04.188Z,-1.10
2022-12-18T22:04:31.261Z,-1.10
2022-12-18T22:07:01.878Z,-1.00
2022-12-18T22:09:28.844Z,-1.00
2022-12-18T22:11:55.449Z,-1.00
2022-12-18T22:14:23.209Z,-1.00
2022-12-18T22:16:50.660Z,-1.00
2022-12-18T22:19:19.508Z,-1.10
2022-12-18T22:21:48.644Z,-1.00
2022-12-18T22:24:21.425Z,-1.10
2022-12-18T22:26:49.763Z,-1.10
2022-12-18T22:29:37.708Z,-1.00
2022-12-18T22:32:05.822Z,-1.00
2022-12-18T22:34:36.412Z,-1.00
2022-12-18T22:37:03.418Z,-1.00
2022-12-18T22:39:30.760Z,-1.00
2022-12-18T22:41:58.129Z,-0.90
2022-12-18T22:44:25.064Z,-0.90
2022-12-18T22:47:06.833Z,-0.90
2022-12-18T22:49:35.531Z,-1.00
2022-12-18T22:52:03.726Z,-1.00
2022-12-18T22:54:30.386Z,-1.00
2022-12-18T22:56:57.279Z,-0.90
2022-12-18T22:59:24.246Z,-0.90
2022-12-18T23:01:54.907Z,-0.90
2022-12-18T23:04:35.956Z,-0.90
2022-12-18T23:07:04.875Z,-0.90
2022-12-18T23:09:31.653Z,-0.90
2022-12-18T23:11:58.294Z,-0.80
2022-12-18T23:14:25.002Z,-0.80
2022-12-18T23:16:52.258Z,-0.80
2022-12-18T23:19:20.525Z,-0.80
2022-12-18T23:21:47.232Z,-0.80
2022-12-18T23:24:13.999Z,-0.80
2022-12-18T23:26:40.980Z,-0.70
2022-12-18T23:29:07.915Z,-0.70
2022-12-18T23:31:37.469Z,-0.70
2022-12-18T23:34:06.051Z,-0.70
2022-12-18T23:36:45.817Z,-0.60
2022-12-18T23:39:15.401Z,-0.60
2022-12-18T23:41:55.349Z,-0.60
2022-12-18T23:44:22.047Z,-0.60
2022-12-18T23:46:48.670Z,-0.60
2022-12-18T23:49:15.308Z,-0.60
2022-12-18T23:51:41.974Z,-0.50
2022-12-18T23:54:10.151Z,-0.50
2022-12-18T23:56:36.818Z,-0.50
2022-12-18T23:59:03.517Z,-0.50
